createdAt,value
2022-10-19T00:00:48.662Z,59.34
2022-10-19T00:01:50.424Z,59.39
2022-10-19T00:02:52.387Z,59.90
2022-10-19T00:03:56.013Z,59.09
2022-10-19T00:04:57.740Z,59.90
2022-10-19T00:06:00.489Z,59.82
2022-10-19T00:07:02.206Z,59.75
2022-10-19T00:08:04.240Z,59.39
2022-10-19T00:09:18.995Z,59.32
2022-10-19T00:10:20.759Z,59.15
2022-10-19T00:11:23.755Z,59.33
2022-10-19T00:12:25.730Z,59.47
2022-10-19T00:13:27.606Z,59.38
2022-10-19T00:14:29.454Z,59.45
2022-10-19T00:15:31.174Z,59.77
2022-10-19T00:16:38.166Z,59.66
2022-10-19T00:17:40.020Z,59.45
2022-10-19T00:18:43.720Z,59.48
2022-10-19T00:19:45.444Z,59.32
2022-10-19T00:20:47.192Z,59.45
2022-10-19T00:22:56.024Z,59.67
2022-10-19T00:23:57.835Z,60.06
2022-10-19T00:24:59.534Z,60.00
2022-10-19T00:26:01.573Z,59.55
2022-10-19T00:27:03.407Z,59.79
2022-10-19T00:28:05.135Z,60.06
2022-10-19T00:29:07.820Z,59.62
2022-10-19T00:30:09.892Z,59.93
2022-10-19T00:31:16.306Z,59.59
2022-10-19T00:32:18.054Z,60.06
2022-10-19T00:33:22.347Z,60.00
2022-10-19T00:34:24.860Z,59.75
2022-10-19T00:35:27.261Z,60.23
2022-10-19T00:36:36.309Z,60.02
2022-10-19T00:37:38.062Z,59.75
2022-10-19T00:38:42.246Z,59.93
2022-10-19T00:39:44.043Z,60.49
2022-10-19T00:40:46.905Z,60.35
2022-10-19T00:41:48.926Z,59.77
2022-10-19T00:42:56.197Z,60.00
2022-10-19T00:44:27.378Z,60.19
2022-10-19T00:45:29.084Z,59.90
2022-10-19T00:46:36.551Z,59.83
2022-10-19T00:47:39.026Z,60.02
2022-10-19T00:48:40.782Z,59.84
2022-10-19T00:49:45.498Z,59.26
2022-10-19T00:50:50.942Z,59.57
2022-10-19T00:51:58.327Z,59.29
2022-10-19T00:53:00.423Z,59.95
2022-10-19T00:54:05.746Z,59.33
2022-10-19T00:55:10.116Z,59.65
2022-10-19T00:56:15.802Z,59.81
2022-10-19T00:57:18.007Z,59.47
2022-10-19T00:58:19.868Z,59.32
2022-10-19T00:59:25.074Z,59.46
2022-10-19T01:00:27.357Z,59.78
2022-10-19T01:01:29.771Z,60.09
2022-10-19T01:02:31.916Z,59.83
2022-10-19T01:03:34.534Z,59.70
2022-10-19T01:04:42.078Z,59.90
2022-10-19T01:05:43.928Z,59.86
2022-10-19T01:06:45.998Z,59.80
2022-10-19T01:07:47.757Z,60.22
2022-10-19T01:08:49.503Z,60.05
2022-10-19T01:09:51.743Z,60.30
2022-10-19T01:11:23.552Z,60.26
2022-10-19T01:12:58.756Z,60.46
2022-10-19T01:14:24.964Z,59.67
2022-10-19T01:15:46.925Z,59.92
2022-10-19T01:17:05.108Z,60.40
2022-10-19T01:18:25.611Z,59.99
2022-10-19T01:20:09.976Z,60.14
2022-10-19T01:21:26.236Z,60.09
2022-10-19T01:23:17.043Z,60.36
2022-10-19T01:25:04.347Z,59.88
2022-10-19T01:26:45.261Z,60.32
2022-10-19T01:28:30.358Z,59.79
2022-10-19T01:29:50.824Z,60.01
2022-10-19T01:31:07.363Z,60.11
2022-10-19T01:32:35.590Z,59.91
2022-10-19T01:33:59.724Z,60.64
2022-10-19T01:35:20.082Z,60.68
2022-10-19T01:36:35.555Z,60.85
2022-10-19T01:37:55.818Z,60.35
2022-10-19T01:39:18.878Z,60.32
2022-10-19T01:40:39.251Z,60.43
2022-10-19T01:42:12.958Z,60.21
2022-10-19T01:43:40.393Z,60.24
2022-10-19T01:45:19.544Z,60.28
2022-10-19T01:46:47.003Z,60.27
2022-10-19T01:48:01.175Z,60.35
2022-10-19T01:49:20.227Z,60.28
2022-10-19T01:50:34.081Z,60.62
2022-10-19T01:51:45.583Z,60.24
2022-10-19T01:52:51.570Z,60.14
2022-10-19T01:53:58.577Z,60.16
2022-10-19T01:55:03.178Z,60.19
2022-10-19T01:56:06.815Z,60.22
2022-10-19T01:57:13.967Z,60.57
2022-10-19T01:58:23.555Z,60.26
2022-10-19T01:59:27.138Z,60.58
2022-10-19T02:00:32.274Z,60.52
2022-10-19T02:01:38.605Z,60.34
2022-10-19T02:02:48.242Z,60.10
2022-10-19T02:03:52.685Z,59.72
2022-10-19T02:04:57.495Z,60.16
2022-10-19T02:06:02.062Z,60.27
2022-10-19T02:07:07.489Z,60.43
2022-10-19T02:08:25.450Z,60.18
2022-10-19T02:09:27.245Z,60.12
2022-10-19T02:10:33.643Z,60.35
2022-10-19T02:11:41.256Z,60.46
2022-10-19T02:12:44.625Z,60.07
2022-10-19T02:13:54.299Z,59.81
2022-10-19T02:15:01.065Z,60.26
2022-10-19T02:16:09.408Z,60.15
2022-10-19T02:17:23.967Z,60.50
2022-10-19T02:18:32.875Z,60.30
2022-10-19T02:19:35.456Z,59.88
2022-10-19T02:20:37.547Z,60.40
2022-10-19T02:21:39.937Z,60.23
2022-10-19T02:22:42.194Z,60.48
2022-10-19T02:23:44.510Z,60.01
2022-10-19T02:24:46.217Z,59.87
2022-10-19T02:25:48.214Z,60.57
2022-10-19T02:26:50.195Z,60.01
2022-10-19T02:27:52.080Z,60.53
2022-10-19T02:28:56.316Z,60.38
2022-10-19T02:29:58.212Z,60.17
2022-10-19T02:31:00.815Z,60.04
2022-10-19T02:32:04.146Z,60.18
2022-10-19T02:33:06.149Z,60.06
2022-10-19T02:34:09.186Z,60.50
2022-10-19T02:35:14.464Z,60.42
2022-10-19T02:36:16.353Z,60.56
2022-10-19T02:37:20.944Z,60.58
2022-10-19T02:38:26.810Z,60.34
2022-10-19T02:39:29.051Z,60.48
2022-10-19T02:40:39.536Z,60.33
2022-10-19T02:42:10.209Z,60.46
2022-10-19T02:43:19.197Z,60.67
2022-10-19T02:44:38.549Z,60.87
2022-10-19T02:46:18.611Z,60.57
2022-10-19T02:47:29.260Z,60.75
2022-10-19T02:48:35.882Z,60.77
2022-10-19T02:49:39.215Z,61.16
2022-10-19T02:50:51.961Z,60.87
2022-10-19T02:52:11.142Z,61.48
2022-10-19T02:53:13.355Z,61.32
2022-10-19T02:54:15.072Z,61.59
2022-10-19T02:55:16.910Z,61.68
2022-10-19T02:56:18.611Z,61.15
2022-10-19T02:57:25.865Z,61.16
2022-10-19T02:58:27.568Z,61.13
2022-10-19T02:59:30.039Z,61.65
2022-10-19T03:00:31.767Z,61.76
2022-10-19T03:01:33.478Z,61.28
2022-10-19T03:02:35.639Z,61.56
2022-10-19T03:03:37.344Z,61.70
2022-10-19T03:04:39.269Z,61.94
2022-10-19T03:05:40.993Z,61.74
2022-10-19T03:06:43.441Z,61.41
2022-10-19T03:07:45.291Z,61.64
2022-10-19T03:08:47.009Z,61.62
2022-10-19T03:09:49.890Z,61.77
2022-10-19T03:10:51.674Z,61.65
2022-10-19T03:11:55.752Z,61.68
2022-10-19T03:12:58.543Z,61.83
2022-10-19T03:14:00.288Z,62.14
2022-10-19T03:15:01.977Z,61.71
2022-10-19T03:16:10.151Z,61.72
2022-10-19T03:17:12.046Z,62.34
2022-10-19T03:18:13.746Z,62.41
2022-10-19T03:19:15.509Z,62.49
2022-10-19T03:20:17.316Z,62.07
2022-10-19T03:21:19.907Z,62.28
2022-10-19T03:22:21.648Z,62.12
2022-10-19T03:23:23.347Z,62.15
2022-10-19T03:24:25.229Z,61.97
2022-10-19T03:25:27.167Z,61.97
2022-10-19T03:26:28.968Z,62.00
2022-10-19T03:27:30.837Z,62.10
2022-10-19T03:28:33.176Z,62.02
2022-10-19T03:29:34.903Z,61.90
2022-10-19T03:30:36.593Z,62.17
2022-10-19T03:31:38.360Z,62.34
2022-10-19T03:32:40.104Z,62.07
2022-10-19T03:33:41.890Z,62.39
2022-10-19T03:34:43.651Z,62.46
2022-10-19T03:35:45.520Z,62.44
2022-10-19T03:36:47.522Z,62.62
2022-10-19T03:37:49.221Z,62.20
2022-10-19T03:38:56.848Z,62.51
2022-10-19T03:39:58.678Z,61.87
2022-10-19T03:41:00.374Z,62.28
2022-10-19T03:42:02.099Z,62.03
2022-10-19T03:43:03.914Z,62.26
2022-10-19T03:44:08.038Z,62.09
2022-10-19T03:45:10.276Z,62.22
2022-10-19T03:46:12.026Z,61.90
2022-10-19T03:47:13.736Z,62.27
2022-10-19T03:48:15.419Z,62.00
2022-10-19T03:49:17.272Z,62.27
2022-10-19T03:50:19.077Z,62.12
2022-10-19T03:51:34.820Z,62.06
2022-10-19T03:52:36.530Z,62.26
2022-10-19T03:53:40.484Z,62.22
2022-10-19T03:54:42.270Z,62.13
2022-10-19T03:55:43.989Z,62.07
2022-10-19T03:56:45.836Z,61.96
2022-10-19T03:57:47.527Z,61.80
2022-10-19T03:58:51.159Z,61.62
2022-10-19T03:59:52.867Z,61.68
2022-10-19T04:00:54.591Z,61.72
2022-10-19T04:01:56.318Z,61.65
2022-10-19T04:02:58.025Z,61.89
2022-10-19T04:04:09.512Z,61.94
2022-10-19T04:05:11.263Z,61.77
2022-10-19T04:06:21.343Z,61.82
2022-10-19T04:07:23.856Z,61.96
2022-10-19T04:08:25.569Z,61.94
2022-10-19T04:09:27.330Z,62.03
2022-10-19T04:10:31.347Z,62.04
2022-10-19T04:11:35.308Z,62.10
2022-10-19T04:12:37.086Z,62.12
2022-10-19T04:13:39.255Z,62.43
2022-10-19T04:14:56.351Z,62.35
2022-10-19T04:15:59.505Z,62.45
2022-10-19T04:17:02.681Z,62.32
2022-10-19T04:18:04.507Z,62.19
2022-10-19T04:19:06.312Z,62.59
2022-10-19T04:20:08.910Z,62.71
2022-10-19T04:21:31.465Z,62.35
2022-10-19T04:22:33.217Z,62.33
2022-10-19T04:23:36.774Z,62.51
2022-10-19T04:24:38.492Z,62.28
2022-10-19T04:25:40.238Z,62.69
2022-10-19T04:26:49.066Z,62.50
2022-10-19T04:27:50.774Z,62.64
2022-10-19T04:28:52.899Z,62.69
2022-10-19T04:29:54.703Z,62.38
2022-10-19T04:30:57.036Z,62.21
2022-10-19T04:31:59.275Z,62.21
2022-10-19T04:33:00.981Z,62.13
2022-10-19T04:34:02.777Z,62.46
2022-10-19T04:35:05.164Z,62.36
2022-10-19T04:36:10.379Z,62.38
2022-10-19T04:37:12.077Z,62.30
2022-10-19T04:38:14.088Z,62.60
2022-10-19T04:39:15.915Z,62.22
2022-10-19T04:40:17.724Z,62.81
2022-10-19T04:41:22.223Z,62.55
2022-10-19T04:42:23.972Z,62.43
2022-10-19T04:43:25.702Z,62.66
2022-10-19T04:44:27.427Z,62.84
2022-10-19T04:45:29.291Z,62.78
2022-10-19T04:46:31.202Z,62.74
2022-10-19T04:47:33.360Z,62.53
2022-10-19T04:48:38.544Z,62.61
2022-10-19T04:49:40.272Z,62.58
2022-10-19T04:50:42.000Z,62.58
2022-10-19T04:51:43.715Z,62.65
2022-10-19T04:52:45.813Z,62.28
2022-10-19T04:53:48.136Z,62.44
2022-10-19T04:54:49.855Z,62.65
2022-10-19T04:55:51.726Z,62.54
2022-10-19T04:56:53.834Z,61.94
2022-10-19T04:57:55.657Z,62.23
2022-10-19T04:58:59.939Z,62.29
2022-10-19T05:00:02.103Z,62.30
2022-10-19T05:01:13.507Z,62.00
2022-10-19T05:02:15.264Z,61.91
2022-10-19T05:03:17.655Z,61.76
2022-10-19T05:04:19.342Z,62.20
2022-10-19T05:05:21.143Z,62.12
2022-10-19T05:06:24.030Z,61.84
2022-10-19T05:07:25.774Z,61.84
2022-10-19T05:08:27.505Z,62.08
2022-10-19T05:09:29.224Z,62.19
2022-10-19T05:10:31.303Z,62.07
2022-10-19T05:11:33.024Z,61.86
2022-10-19T05:12:36.191Z,61.91
2022-10-19T05:13:38.668Z,61.90
2022-10-19T05:14:42.725Z,61.83
2022-10-19T05:15:55.419Z,61.84
2022-10-19T05:16:57.158Z,61.90
2022-10-19T05:17:58.999Z,61.84
2022-10-19T05:19:01.555Z,61.79
2022-10-19T05:20:03.648Z,61.70
2022-10-19T05:21:13.651Z,61.89
2022-10-19T05:22:15.392Z,61.65
2022-10-19T05:23:17.489Z,61.74
2022-10-19T05:24:19.199Z,61.80
2022-10-19T05:25:20.913Z,61.91
2022-10-19T05:26:26.670Z,61.88
2022-10-19T05:27:28.443Z,61.70
2022-10-19T05:28:30.714Z,61.93
2022-10-19T05:29:33.821Z,61.66
2022-10-19T05:30:35.690Z,61.73
2022-10-19T05:31:37.471Z,61.68
2022-10-19T05:32:39.171Z,61.94
2022-10-19T05:33:42.864Z,61.70
2022-10-19T05:34:44.578Z,61.54
2022-10-19T05:35:46.301Z,61.44
2022-10-19T05:36:48.057Z,61.87
2022-10-19T05:37:55.194Z,62.26
2022-10-19T05:38:58.239Z,61.76
2022-10-19T05:39:59.955Z,61.64
2022-10-19T05:41:01.670Z,61.64
2022-10-19T05:42:03.659Z,61.76
2022-10-19T05:43:05.340Z,61.98
2022-10-19T05:44:07.277Z,61.81
2022-10-19T05:45:09.588Z,61.79
2022-10-19T05:46:18.124Z,61.82
2022-10-19T05:47:19.861Z,61.83
2022-10-19T05:48:21.589Z,61.74
2022-10-19T05:49:23.610Z,61.85
2022-10-19T05:50:25.382Z,61.86
2022-10-19T05:51:28.747Z,61.85
2022-10-19T05:52:30.530Z,62.12
2022-10-19T05:53:34.306Z,61.78
2022-10-19T05:54:37.355Z,62.15
2022-10-19T05:55:39.067Z,62.13
2022-10-19T05:56:42.238Z,62.03
2022-10-19T05:57:43.973Z,62.04
2022-10-19T05:58:46.312Z,62.04
2022-10-19T05:59:48.023Z,61.95
2022-10-19T06:00:58.969Z,61.88
2022-10-19T06:02:00.809Z,62.10
2022-10-19T06:03:02.570Z,62.06
2022-10-19T06:04:04.534Z,61.96
2022-10-19T06:05:07.169Z,62.27
2022-10-19T06:06:09.930Z,62.43
2022-10-19T06:07:11.641Z,62.03
2022-10-19T06:08:13.403Z,62.08
2022-10-19T06:09:15.143Z,61.98
2022-10-19T06:10:17.495Z,62.12
2022-10-19T06:11:26.875Z,62.12
2022-10-19T06:12:28.605Z,62.07
2022-10-19T06:13:30.319Z,62.01
2022-10-19T06:14:32.058Z,62.16
2022-10-19T06:15:39.924Z,62.11
2022-10-19T06:16:42.321Z,61.81
2022-10-19T06:17:44.016Z,61.68
2022-10-19T06:18:46.327Z,61.88
2022-10-19T06:19:48.040Z,61.88
2022-10-19T06:20:49.747Z,62.17
2022-10-19T06:21:51.489Z,62.16
2022-10-19T06:22:53.219Z,61.90
2022-10-19T06:23:58.944Z,62.13
2022-10-19T06:25:00.680Z,62.18
2022-10-19T06:26:08.756Z,62.15
2022-10-19T06:27:10.533Z,62.03
2022-10-19T06:28:12.534Z,62.17
2022-10-19T06:29:14.317Z,62.13
2022-10-19T06:30:16.117Z,61.87
2022-10-19T06:31:18.396Z,61.85
2022-10-19T06:32:20.521Z,62.24
2022-10-19T06:33:22.221Z,62.43
2022-10-19T06:34:24.064Z,62.11
2022-10-19T06:35:25.912Z,61.88
2022-10-19T06:36:30.536Z,62.17
2022-10-19T06:37:32.824Z,62.22
2022-10-19T06:38:35.064Z,62.15
2022-10-19T06:39:36.815Z,62.24
2022-10-19T06:40:38.527Z,62.28
2022-10-19T06:41:40.237Z,62.37
2022-10-19T06:42:41.942Z,61.90
2022-10-19T06:43:44.399Z,62.08
2022-10-19T06:44:46.218Z,62.35
2022-10-19T06:45:47.931Z,62.13
2022-10-19T06:46:49.642Z,62.63
2022-10-19T06:47:51.550Z,62.25
2022-10-19T06:48:56.725Z,62.38
2022-10-19T06:49:58.463Z,62.12
2022-10-19T06:51:06.161Z,61.83
2022-10-19T06:52:08.285Z,62.09
2022-10-19T06:53:10.122Z,62.30
2022-10-19T06:54:11.856Z,62.07
2022-10-19T06:55:13.780Z,62.07
2022-10-19T06:56:15.961Z,62.05
2022-10-19T06:57:17.669Z,62.37
2022-10-19T06:58:19.646Z,62.07
2022-10-19T06:59:21.393Z,62.03
2022-10-19T07:00:23.159Z,62.04
2022-10-19T07:01:25.844Z,62.27
2022-10-19T07:02:27.618Z,62.36
2022-10-19T07:03:30.103Z,62.28
2022-10-19T07:04:31.873Z,62.27
2022-10-19T07:05:33.630Z,62.37
2022-10-19T07:06:35.346Z,62.25
2022-10-19T07:07:37.407Z,62.06
2022-10-19T07:08:42.007Z,62.34
2022-10-19T07:09:43.772Z,62.23
2022-10-19T07:10:51.576Z,62.23
2022-10-19T07:11:53.308Z,62.22
2022-10-19T07:12:56.670Z,62.21
2022-10-19T07:13:58.418Z,61.70
2022-10-19T07:15:00.171Z,62.06
2022-10-19T07:16:19.739Z,62.08
2022-10-19T07:17:23.099Z,62.15
2022-10-19T07:18:25.835Z,61.86
2022-10-19T07:19:27.627Z,62.27
2022-10-19T07:20:29.356Z,62.12
2022-10-19T07:21:31.108Z,61.96
2022-10-19T07:22:32.874Z,61.58
2022-10-19T07:23:37.569Z,61.76
2022-10-19T07:24:39.259Z,62.04
2022-10-19T07:25:40.975Z,61.77
2022-10-19T07:26:42.762Z,61.69
2022-10-19T07:27:44.532Z,61.63
2022-10-19T07:28:48.238Z,61.59
2022-10-19T07:29:50.218Z,61.71
2022-10-19T07:30:51.946Z,61.71
2022-10-19T07:31:53.719Z,61.75
2022-10-19T07:32:55.460Z,61.72
2022-10-19T07:34:01.207Z,61.72
2022-10-19T07:35:03.083Z,61.54
2022-10-19T07:36:08.681Z,61.73
2022-10-19T07:37:10.460Z,61.65
2022-10-19T07:38:12.246Z,61.61
2022-10-19T07:39:16.958Z,61.81
2022-10-19T07:40:18.660Z,61.58
2022-10-19T07:41:24.541Z,61.66
2022-10-19T07:42:30.314Z,61.60
2022-10-19T07:43:32.840Z,61.68
2022-10-19T07:44:34.616Z,61.85
2022-10-19T07:45:36.355Z,61.54
2022-10-19T07:46:39.345Z,61.89
2022-10-19T07:47:41.107Z,61.61
2022-10-19T07:48:44.350Z,61.65
2022-10-19T07:49:46.101Z,61.85
2022-10-19T07:50:48.957Z,61.90
2022-10-19T07:51:53.958Z,61.77
2022-10-19T07:52:55.835Z,61.63
2022-10-19T07:54:00.361Z,61.78
2022-10-19T07:55:02.244Z,61.84
2022-10-19T07:56:11.103Z,61.52
2022-10-19T07:57:12.904Z,61.63
2022-10-19T07:58:14.627Z,61.74
2022-10-19T07:59:17.244Z,61.52
2022-10-19T08:00:19.090Z,61.75
2022-10-19T08:01:24.254Z,61.78
2022-10-19T08:02:30.875Z,61.87
2022-10-19T08:04:42.715Z,61.69
2022-10-19T08:05:07.884Z,61.61
2022-10-19T08:06:17.646Z,61.50
2022-10-19T08:07:19.361Z,61.46
2022-10-19T08:08:21.076Z,61.47
2022-10-19T08:09:51.080Z,61.34
2022-10-19T08:10:44.513Z,61.52
2022-10-19T08:11:46.219Z,61.27
2022-10-19T08:12:47.925Z,60.93
2022-10-19T08:13:50.245Z,60.98
2022-10-19T08:14:54.352Z,61.15
2022-10-19T08:15:56.058Z,60.96
2022-10-19T08:16:57.981Z,60.91
2022-10-19T08:18:00.762Z,60.80
2022-10-19T08:19:10.068Z,60.90
2022-10-19T08:20:11.910Z,61.03
2022-10-19T08:21:13.631Z,61.19
2022-10-19T08:22:15.456Z,60.82
2022-10-19T08:23:17.220Z,61.06
2022-10-19T08:24:20.414Z,60.72
2022-10-19T08:25:22.158Z,60.88
2022-10-19T08:26:24.374Z,60.99
2022-10-19T08:27:26.636Z,60.68
2022-10-19T08:28:28.401Z,60.60
2022-10-19T08:29:31.554Z,60.92
2022-10-19T08:30:37.044Z,61.12
2022-10-19T08:31:39.871Z,61.14
2022-10-19T08:32:41.937Z,60.51
2022-10-19T08:33:44.463Z,60.89
2022-10-19T08:34:46.292Z,60.79
2022-10-19T08:35:48.000Z,60.65
2022-10-19T08:36:49.725Z,60.73
2022-10-19T08:37:51.897Z,60.50
2022-10-19T08:38:53.807Z,60.60
2022-10-19T08:39:55.525Z,60.63
2022-10-19T08:41:04.170Z,60.65
2022-10-19T08:42:19.270Z,60.76
2022-10-19T08:43:36.769Z,60.44
2022-10-19T08:45:13.933Z,60.63
2022-10-19T08:46:39.105Z,60.69
2022-10-19T08:48:30.265Z,60.55
2022-10-19T08:49:32.927Z,60.15
2022-10-19T08:50:41.201Z,60.64
2022-10-19T08:51:46.762Z,60.46
2022-10-19T08:53:01.405Z,60.77
2022-10-19T08:54:12.108Z,60.37
2022-10-19T08:55:20.607Z,60.44
2022-10-19T08:56:51.569Z,60.01
2022-10-19T08:58:44.765Z,60.37
2022-10-19T09:00:06.141Z,59.96
2022-10-19T09:01:37.645Z,59.99
2022-10-19T09:03:37.827Z,60.04
2022-10-19T09:05:03.451Z,59.75
2022-10-19T09:06:28.348Z,60.22
2022-10-19T09:07:44.986Z,59.81
2022-10-19T09:08:48.299Z,60.27
2022-10-19T09:10:04.341Z,60.04
2022-10-19T09:11:10.303Z,59.67
2022-10-19T09:12:19.512Z,60.29
2022-10-19T09:14:04.109Z,59.84
2022-10-19T09:15:17.820Z,59.64
2022-10-19T09:16:21.043Z,59.87
2022-10-19T09:17:24.802Z,59.89
2022-10-19T09:18:31.485Z,59.98
2022-10-19T09:19:33.531Z,59.99
2022-10-19T09:20:41.198Z,60.04
2022-10-19T09:21:55.414Z,60.10
2022-10-19T09:23:21.201Z,59.95
2022-10-19T09:24:50.753Z,60.10
2022-10-19T09:25:53.725Z,60.01
2022-10-19T09:27:01.599Z,59.99
2022-10-19T09:28:43.019Z,60.05
2022-10-19T09:29:55.216Z,59.54
2022-10-19T09:30:59.527Z,60.16
2022-10-19T09:32:11.234Z,59.52
2022-10-19T09:33:28.377Z,59.43
2022-10-19T09:34:46.247Z,59.99
2022-10-19T09:35:48.652Z,59.73
2022-10-19T09:36:59.376Z,59.74
2022-10-19T09:38:04.674Z,59.55
2022-10-19T09:39:06.451Z,59.55
2022-10-19T09:40:21.677Z,59.68
2022-10-19T09:41:24.358Z,59.65
2022-10-19T09:42:33.613Z,59.23
2022-10-19T09:43:35.756Z,59.52
2022-10-19T09:44:37.567Z,59.38
2022-10-19T09:46:19.795Z,58.96
2022-10-19T09:47:35.557Z,58.88
2022-10-19T09:48:52.870Z,58.67
2022-10-19T09:50:19.163Z,58.63
2022-10-19T09:51:21.635Z,58.59
2022-10-19T09:52:31.187Z,59.21
2022-10-19T09:53:33.000Z,58.76
2022-10-19T09:54:39.099Z,59.35
2022-10-19T09:56:56.090Z,59.35
2022-10-19T09:58:20.427Z,58.66
2022-10-19T09:59:28.757Z,58.54
2022-10-19T10:00:45.032Z,58.96
2022-10-19T10:01:46.822Z,59.05
2022-10-19T10:02:54.682Z,58.23
2022-10-19T10:04:17.202Z,57.94
2022-10-19T10:05:20.506Z,58.06
2022-10-19T10:06:22.618Z,58.05
2022-10-19T10:07:33.974Z,57.21
2022-10-19T10:08:58.951Z,57.18
2022-10-19T10:10:01.030Z,57.05
2022-10-19T10:11:06.961Z,56.56
2022-10-19T10:12:09.621Z,56.55
2022-10-19T10:13:21.082Z,56.44
2022-10-19T10:14:41.872Z,55.56
2022-10-19T10:15:49.493Z,55.31
2022-10-19T10:17:07.926Z,54.96
2022-10-19T10:18:17.062Z,55.00
2022-10-19T10:19:19.166Z,54.62
2022-10-19T10:20:32.189Z,54.34
2022-10-19T10:21:46.108Z,54.26
2022-10-19T10:23:03.324Z,53.87
2022-10-19T10:24:05.854Z,53.80
2022-10-19T10:25:18.362Z,53.69
2022-10-19T10:26:20.428Z,53.38
2022-10-19T10:27:40.585Z,53.50
2022-10-19T10:28:50.295Z,53.18
2022-10-19T10:31:07.960Z,52.87
2022-10-19T10:32:19.424Z,52.56
2022-10-19T10:33:40.430Z,52.47
2022-10-19T10:35:01.628Z,52.18
2022-10-19T10:36:13.227Z,52.15
2022-10-19T10:37:28.122Z,51.05
2022-10-19T10:38:50.140Z,50.56
2022-10-19T10:39:57.676Z,49.99
2022-10-19T10:41:14.795Z,49.68
2022-10-19T10:42:26.623Z,48.89
2022-10-19T10:43:33.583Z,47.83
2022-10-19T10:44:36.687Z,47.01
2022-10-19T10:45:42.892Z,46.44
2022-10-19T10:47:00.467Z,45.38
2022-10-19T10:48:42.843Z,44.04
2022-10-19T10:49:55.431Z,42.94
2022-10-19T10:51:00.702Z,41.56
2022-10-19T10:52:09.678Z,41.00
2022-10-19T10:53:33.156Z,40.36
2022-10-19T10:54:35.140Z,40.22
2022-10-19T10:55:36.851Z,39.67
2022-10-19T10:56:40.964Z,39.72
2022-10-19T10:57:49.746Z,39.52
2022-10-19T10:59:00.660Z,39.84
2022-10-19T11:00:20.123Z,39.47
2022-10-19T11:01:33.485Z,38.71
2022-10-19T11:03:12.141Z,38.49
2022-10-19T11:04:25.275Z,37.76
2022-10-19T11:05:30.447Z,37.37
2022-10-19T11:06:43.671Z,37.02
2022-10-19T11:07:54.940Z,37.25
2022-10-19T11:09:11.585Z,36.92
2022-10-19T11:10:41.255Z,38.00
2022-10-19T11:11:47.546Z,37.56
2022-10-19T11:13:25.921Z,38.35
2022-10-19T11:14:51.014Z,38.76
2022-10-19T11:15:57.130Z,38.53
2022-10-19T11:17:06.849Z,39.00
2022-10-19T11:18:32.211Z,39.22
2022-10-19T11:19:43.006Z,39.29
2022-10-19T11:21:12.091Z,40.00
2022-10-19T11:22:28.212Z,40.14
2022-10-19T11:23:45.791Z,40.41
2022-10-19T11:24:54.013Z,40.58
2022-10-19T11:26:17.611Z,40.89
2022-10-19T11:27:51.503Z,41.04
2022-10-19T11:29:30.761Z,41.51
2022-10-19T11:30:55.355Z,41.77
2022-10-19T11:31:57.981Z,41.99
2022-10-19T11:33:28.241Z,42.07
2022-10-19T11:34:52.924Z,42.26
2022-10-19T11:36:02.007Z,42.05
2022-10-19T11:37:20.958Z,41.96
2022-10-19T11:38:43.425Z,42.07
2022-10-19T11:39:50.838Z,42.12
2022-10-19T11:41:17.486Z,41.95
2022-10-19T11:42:50.611Z,42.13
2022-10-19T11:44:13.415Z,42.25
2022-10-19T11:45:30.953Z,42.21
2022-10-19T11:46:59.996Z,42.56
2022-10-19T11:48:20.482Z,42.51
2022-10-19T11:49:24.986Z,42.56
2022-10-19T11:51:21.896Z,42.51
2022-10-19T11:52:46.492Z,42.43
2022-10-19T11:54:30.418Z,42.53
2022-10-19T11:55:56.825Z,42.65
2022-10-19T11:57:11.786Z,42.44
2022-10-19T11:58:57.499Z,42.50
2022-10-19T12:00:14.106Z,42.37
2022-10-19T12:01:48.117Z,42.28
2022-10-19T12:03:05.834Z,42.35
2022-10-19T12:04:23.216Z,42.40
2022-10-19T12:06:10.877Z,42.41
2022-10-19T12:07:30.846Z,42.65
2022-10-19T12:09:10.561Z,42.76
2022-10-19T12:10:36.506Z,42.77
2022-10-19T12:12:25.241Z,43.06
2022-10-19T12:13:49.027Z,43.56
2022-10-19T12:15:12.881Z,43.36
2022-10-19T12:16:17.212Z,43.80
2022-10-19T12:17:32.974Z,43.89
2022-10-19T12:18:46.084Z,43.95
2022-10-19T12:19:58.643Z,44.40
2022-10-19T12:21:08.489Z,44.28
2022-10-19T12:22:21.034Z,44.59
2022-10-19T12:23:41.355Z,44.60
2022-10-19T12:24:43.438Z,44.58
2022-10-19T12:25:46.594Z,44.73
2022-10-19T12:26:51.091Z,44.74
2022-10-19T12:27:54.084Z,44.28
2022-10-19T12:29:22.256Z,44.44
2022-10-19T12:30:24.959Z,44.41
2022-10-19T12:31:29.992Z,44.28
2022-10-19T12:32:47.227Z,44.54
2022-10-19T12:34:22.454Z,44.68
2022-10-19T12:35:53.295Z,44.84
2022-10-19T12:37:15.302Z,44.73
2022-10-19T12:38:45.935Z,45.22
2022-10-19T12:40:11.692Z,45.02
2022-10-19T12:41:57.746Z,44.93
2022-10-19T12:43:17.128Z,45.26
2022-10-19T12:44:37.822Z,45.12
2022-10-19T12:45:41.362Z,45.58
2022-10-19T12:47:06.685Z,45.41
2022-10-19T12:48:08.327Z,45.69
2022-10-19T12:49:30.244Z,45.76
2022-10-19T12:50:50.544Z,45.98
2022-10-19T12:51:53.992Z,46.31
2022-10-19T12:52:55.742Z,46.06
2022-10-19T12:54:09.558Z,46.25
2022-10-19T12:55:34.689Z,46.23
2022-10-19T12:56:53.560Z,46.36
2022-10-19T12:58:04.360Z,46.39
2022-10-19T12:59:29.060Z,46.60
2022-10-19T13:00:36.041Z,46.53
2022-10-19T13:01:37.720Z,47.08
2022-10-19T13:02:41.503Z,46.68
2022-10-19T13:03:46.864Z,46.90
2022-10-19T13:04:54.213Z,47.01
2022-10-19T13:06:04.903Z,46.98
2022-10-19T13:07:09.074Z,47.18
2022-10-19T13:08:38.786Z,47.02
2022-10-19T13:09:46.902Z,47.19
2022-10-19T13:11:14.387Z,47.16
2022-10-19T13:12:19.797Z,47.04
2022-10-19T13:13:52.096Z,47.18
2022-10-19T13:15:04.840Z,47.14
2022-10-19T13:16:29.343Z,46.96
2022-10-19T13:17:34.464Z,47.24
2022-10-19T13:18:59.757Z,47.01
2022-10-19T13:20:13.818Z,46.90
2022-10-19T13:21:50.721Z,46.97
2022-10-19T13:23:03.453Z,47.07
2022-10-19T13:25:47.199Z,46.91
2022-10-19T13:27:08.890Z,46.90
2022-10-19T13:28:10.692Z,46.84
2022-10-19T13:29:27.193Z,46.74
2022-10-19T13:30:37.738Z,46.57
2022-10-19T13:31:39.945Z,46.14
2022-10-19T13:32:45.305Z,46.24
2022-10-19T13:33:49.803Z,46.39
2022-10-19T13:34:51.612Z,46.06
2022-10-19T13:35:59.140Z,46.18
2022-10-19T13:37:03.917Z,46.01
2022-10-19T13:38:18.231Z,46.18
2022-10-19T13:39:28.840Z,46.14
2022-10-19T13:40:31.264Z,46.21
2022-10-19T13:41:39.133Z,46.00
2022-10-19T13:42:40.997Z,46.33
2022-10-19T13:44:11.930Z,46.41
2022-10-19T13:45:24.737Z,46.81
2022-10-19T13:47:05.613Z,46.28
2022-10-19T13:48:28.337Z,46.42
2022-10-19T13:50:06.408Z,46.70
2022-10-19T13:51:24.712Z,46.73
2022-10-19T13:53:25.999Z,46.67
2022-10-19T13:54:58.209Z,46.69
2022-10-19T13:56:45.127Z,46.74
2022-10-19T13:58:24.138Z,46.92
2022-10-19T14:00:05.242Z,47.16
2022-10-19T14:01:31.187Z,47.42
2022-10-19T14:03:08.062Z,47.41
2022-10-19T14:04:44.907Z,47.67
2022-10-19T14:06:17.209Z,47.83
2022-10-19T14:07:32.878Z,47.66
2022-10-19T14:08:56.385Z,47.74
2022-10-19T14:10:16.074Z,47.58
2022-10-19T14:11:26.290Z,47.86
2022-10-19T14:12:31.289Z,47.77
2022-10-19T14:13:33.071Z,47.92
2022-10-19T14:14:44.273Z,47.94
2022-10-19T14:15:56.204Z,47.91
2022-10-19T14:17:03.874Z,47.87
2022-10-19T14:18:36.392Z,47.76
2022-10-19T14:19:57.104Z,47.55
2022-10-19T14:21:06.261Z,47.67
2022-10-19T14:22:37.515Z,47.89
2022-10-19T14:23:40.440Z,47.81
2022-10-19T14:24:42.194Z,47.67
2022-10-19T14:26:03.743Z,48.11
2022-10-19T14:27:07.695Z,47.87
2022-10-19T14:28:09.478Z,47.71
2022-10-19T14:29:13.416Z,47.67
2022-10-19T14:30:36.302Z,47.80
2022-10-19T14:31:39.681Z,47.76
2022-10-19T14:32:41.442Z,48.05
2022-10-19T14:33:50.193Z,47.70
2022-10-19T14:34:53.504Z,47.82
2022-10-19T14:35:56.146Z,47.93
2022-10-19T14:36:58.054Z,47.79
2022-10-19T14:38:00.703Z,47.88
2022-10-19T14:39:03.534Z,48.10
2022-10-19T14:40:26.581Z,47.80
2022-10-19T14:41:37.267Z,48.29
2022-10-19T14:42:45.317Z,48.16
2022-10-19T14:43:47.208Z,48.15
2022-10-19T14:44:49.114Z,48.34
2022-10-19T14:46:10.818Z,48.43
2022-10-19T14:47:20.966Z,48.61
2022-10-19T14:48:22.732Z,48.54
2022-10-19T14:49:24.456Z,48.58
2022-10-19T14:50:56.419Z,48.73
2022-10-19T14:52:03.778Z,48.97
2022-10-19T14:53:15.692Z,48.79
2022-10-19T14:54:36.372Z,48.87
2022-10-19T14:55:41.408Z,48.87
2022-10-19T14:56:55.451Z,48.84